sensor_id;sensor_type;location;lat;lon;timestamp;P1;durP1;ratioP1;P2;durP2;ratioP2
51384;SDS011;37478;55.682;37.462;2023-02-28T00:01:23;22.40;;;7.63;;
51384;SDS011;37478;55.682;37.462;2023-02-28T00:03:48;16.27;;;8.10;;
51384;SDS011;37478;55.682;37.462;2023-02-28T00:06:14;14.17;;;7.97;;
51384;SDS011;37478;55.682;37.462;2023-02-28T00:08:39;16.63;;;8.60;;
51384;SDS011;37478;55.682;37.462;2023-02-28T00:11:06;18.20;;;8.30;;
51384;SDS011;37478;55.682;37.462;2023-02-28T00:13:32;17.57;;;7.43;;
51384;SDS011;37478;55.682;37.462;2023-02-28T00:15:59;18.90;;;8.03;;
51384;SDS011;37478;55.682;37.462;2023-02-28T00:18:25;18.57;;;7.90;;
51384;SDS011;37478;55.682;37.462;2023-02-28T00:20:50;15.10;;;7.97;;
51384;SDS011;37478;55.682;37.462;2023-02-28T00:23:16;15.30;;;9.07;;
51384;SDS011;37478;55.682;37.462;2023-02-28T00:25:41;17.07;;;7.90;;
51384;SDS011;37478;55.682;37.462;2023-02-28T00:28:06;17.23;;;8.90;;
51384;SDS011;37478;55.682;37.462;2023-02-28T00:30:31;16.27;;;7.80;;
51384;SDS011;37478;55.682;37.462;2023-02-28T00:32:57;16.40;;;8.50;;
51384;SDS011;37478;55.682;37.462;2023-02-28T00:35:22;15.43;;;7.93;;
51384;SDS011;37478;55.682;37.462;2023-02-28T00:37:47;11.70;;;6.23;;
51384;SDS011;37478;55.682;37.462;2023-02-28T00:40:13;13.33;;;7.60;;
51384;SDS011;37478;55.682;37.462;2023-02-28T00:42:38;20.23;;;8.03;;
51384;SDS011;37478;55.682;37.462;2023-02-28T00:45:04;14.40;;;6.20;;
51384;SDS011;37478;55.682;37.462;2023-02-28T00:47:30;11.67;;;5.47;;
51384;SDS011;37478;55.682;37.462;2023-02-28T00:49:55;14.30;;;6.07;;
51384;SDS011;37478;55.682;37.462;2023-02-28T00:52:20;11.57;;;7.10;;
51384;SDS011;37478;55.682;37.462;2023-02-28T00:54:46;14.37;;;6.40;;
51384;SDS011;37478;55.682;37.462;2023-02-28T00:57:12;14.13;;;6.00;;
51384;SDS011;37478;55.682;37.462;2023-02-28T00:59:37;10.83;;;5.73;;
51384;SDS011;37478;55.682;37.462;2023-02-28T01:02:02;12.07;;;6.70;;
51384;SDS011;37478;55.682;37.462;2023-02-28T01:04:27;11.87;;;6.63;;
51384;SDS011;37478;55.682;37.462;2023-02-28T01:06:53;12.47;;;5.63;;
51384;SDS011;37478;55.682;37.462;2023-02-28T01:09:18;14.83;;;5.73;;
51384;SDS011;37478;55.682;37.462;2023-02-28T01:11:43;11.13;;;4.63;;
51384;SDS011;37478;55.682;37.462;2023-02-28T01:14:11;15.33;;;6.17;;
51384;SDS011;37478;55.682;37.462;2023-02-28T01:16:37;7.80;;;4.60;;
51384;SDS011;37478;55.682;37.462;2023-02-28T01:19:02;13.23;;;4.93;;
51384;SDS011;37478;55.682;37.462;2023-02-28T01:21:27;16.40;;;6.33;;
51384;SDS011;37478;55.682;37.462;2023-02-28T01:23:55;10.63;;;5.50;;
51384;SDS011;37478;55.682;37.462;2023-02-28T01:26:21;13.53;;;6.20;;
51384;SDS011;37478;55.682;37.462;2023-02-28T01:28:47;11.27;;;5.53;;
51384;SDS011;37478;55.682;37.462;2023-02-28T01:31:13;12.43;;;5.77;;
51384;SDS011;37478;55.682;37.462;2023-02-28T01:33:38;12.43;;;7.70;;
51384;SDS011;37478;55.682;37.462;2023-02-28T01:36:05;14.73;;;7.37;;
51384;SDS011;37478;55.682;37.462;2023-02-28T01:38:30;13.40;;;6.27;;
51384;SDS011;37478;55.682;37.462;2023-02-28T01:40:56;12.63;;;7.57;;
51384;SDS011;37478;55.682;37.462;2023-02-28T01:43:22;13.00;;;7.27;;
51384;SDS011;37478;55.682;37.462;2023-02-28T01:45:49;14.17;;;6.37;;
51384;SDS011;37478;55.682;37.462;2023-02-28T01:48:14;14.73;;;7.53;;
51384;SDS011;37478;55.682;37.462;2023-02-28T01:50:41;14.80;;;8.57;;
51384;SDS011;37478;55.682;37.462;2023-02-28T01:53:09;12.03;;;6.93;;
51384;SDS011;37478;55.682;37.462;2023-02-28T01:55:35;16.40;;;8.07;;
51384;SDS011;37478;55.682;37.462;2023-02-28T01:58:01;13.17;;;6.50;;
51384;SDS011;37478;55.682;37.462;2023-02-28T02:00:27;17.20;;;7.53;;
51384;SDS011;37478;55.682;37.462;2023-02-28T02:02:54;12.17;;;7.03;;
51384;SDS011;37478;55.682;37.462;2023-02-28T02:05:21;14.20;;;5.60;;
51384;SDS011;37478;55.682;37.462;2023-02-28T02:07:48;9.07;;;4.10;;
51384;SDS011;37478;55.682;37.462;2023-02-28T02:13:00;11.80;;;5.20;;
51384;SDS011;37478;55.682;37.462;2023-02-28T02:15:29;9.60;;;4.47;;
51384;SDS011;37478;55.682;37.462;2023-02-28T02:17:57;13.83;;;6.27;;
51384;SDS011;37478;55.682;37.462;2023-02-28T02:25:42;15.03;;;5.23;;
51384;SDS011;37478;55.682;37.462;2023-02-28T02:40:43;12.50;;;6.37;;
51384;SDS011;37478;55.682;37.462;2023-02-28T02:43:17;11.40;;;5.87;;
51384;SDS011;37478;55.682;37.462;2023-02-28T02:45:45;13.47;;;6.33;;
51384;SDS011;37478;55.682;37.462;2023-02-28T02:48:14;10.87;;;4.90;;
51384;SDS011;37478;55.682;37.462;2023-02-28T02:50:44;13.30;;;6.07;;
51384;SDS011;37478;55.682;37.462;2023-02-28T02:53:10;12.10;;;5.17;;
51384;SDS011;37478;55.682;37.462;2023-02-28T02:55:39;5.57;;;3.83;;
51384;SDS011;37478;55.682;37.462;2023-02-28T02:58:07;11.23;;;4.73;;
51384;SDS011;37478;55.682;37.462;2023-02-28T03:00:34;7.20;;;3.97;;
51384;SDS011;37478;55.682;37.462;2023-02-28T03:03:01;7.53;;;4.17;;
51384;SDS011;37478;55.682;37.462;2023-02-28T03:05:27;6.97;;;4.00;;
51384;SDS011;37478;55.682;37.462;2023-02-28T03:07:55;8.23;;;4.83;;
51384;SDS011;37478;55.682;37.462;2023-02-28T03:10:31;8.20;;;4.97;;
51384;SDS011;37478;55.682;37.462;2023-02-28T03:13:00;11.63;;;4.20;;
51384;SDS011;37478;55.682;37.462;2023-02-28T03:15:30;7.87;;;3.87;;
51384;SDS011;37478;55.682;37.462;2023-02-28T03:18:16;8.50;;;4.30;;
51384;SDS011;37478;55.682;37.462;2023-02-28T03:20:49;8.67;;;3.87;;
51384;SDS011;37478;55.682;37.462;2023-02-28T03:23:23;5.57;;;3.47;;
51384;SDS011;37478;55.682;37.462;2023-02-28T03:25:57;7.77;;;4.20;;
51384;SDS011;37478;55.682;37.462;2023-02-28T03:33:44;9.20;;;4.50;;
51384;SDS011;37478;55.682;37.462;2023-02-28T03:36:12;8.53;;;3.77;;
51384;SDS011;37478;55.682;37.462;2023-02-28T03:38:52;9.20;;;4.27;;
51384;SDS011;37478;55.682;37.462;2023-02-28T03:41:23;8.90;;;4.90;;
51384;SDS011;37478;55.682;37.462;2023-02-28T03:43:55;6.93;;;4.13;;
51384;SDS011;37478;55.682;37.462;2023-02-28T03:46:22;9.67;;;4.27;;
51384;SDS011;37478;55.682;37.462;2023-02-28T03:48:51;6.83;;;4.47;;
51384;SDS011;37478;55.682;37.462;2023-02-28T03:51:19;7.67;;;4.40;;
51384;SDS011;37478;55.682;37.462;2023-02-28T03:53:59;9.37;;;4.10;;
51384;SDS011;37478;55.682;37.462;2023-02-28T03:56:44;8.23;;;4.07;;
51384;SDS011;37478;55.682;37.462;2023-02-28T04:01:47;5.50;;;3.40;;
51384;SDS011;37478;55.682;37.462;2023-02-28T04:04:13;5.23;;;3.30;;
51384;SDS011;37478;55.682;37.462;2023-02-28T04:06:39;7.20;;;4.03;;
51384;SDS011;37478;55.682;37.462;2023-02-28T04:09:05;10.03;;;5.53;;
51384;SDS011;37478;55.682;37.462;2023-02-28T04:13:56;10.30;;;4.23;;
51384;SDS011;37478;55.682;37.462;2023-02-28T04:16:22;7.87;;;4.17;;
51384;SDS011;37478;55.682;37.462;2023-02-28T04:18:47;8.23;;;4.13;;
51384;SDS011;37478;55.682;37.462;2023-02-28T04:21:13;9.57;;;3.83;;
51384;SDS011;37478;55.682;37.462;2023-02-28T04:23:38;6.50;;;4.20;;
51384;SDS011;37478;55.682;37.462;2023-02-28T04:26:03;6.60;;;3.83;;
51384;SDS011;37478;55.682;37.462;2023-02-28T04:28:32;9.80;;;4.03;;
51384;SDS011;37478;55.682;37.462;2023-02-28T04:30:58;7.43;;;4.40;;
51384;SDS011;37478;55.682;37.462;2023-02-28T04:33:24;7.80;;;3.73;;
51384;SDS011;37478;55.682;37.462;2023-02-28T04:35:57;7.47;;;3.87;;
51384;SDS011;37478;55.682;37.462;2023-02-28T04:38:23;4.43;;;2.70;;
51384;SDS011;37478;55.682;37.462;2023-02-28T04:40:48;5.83;;;4.30;;
51384;SDS011;37478;55.682;37.462;2023-02-28T04:43:13;5.80;;;3.50;;
51384;SDS011;37478;55.682;37.462;2023-02-28T04:45:38;6.03;;;3.10;;
51384;SDS011;37478;55.682;37.462;2023-02-28T04:48:04;9.03;;;4.00;;
51384;SDS011;37478;55.682;37.462;2023-02-28T04:50:29;4.73;;;3.03;;
51384;SDS011;37478;55.682;37.462;2023-02-28T04:52:54;6.07;;;3.37;;
51384;SDS011;37478;55.682;37.462;2023-02-28T04:55:20;9.27;;;3.67;;
51384;SDS011;37478;55.682;37.462;2023-02-28T04:57:45;7.40;;;3.63;;
51384;SDS011;37478;55.682;37.462;2023-02-28T05:00:10;7.43;;;3.67;;
51384;SDS011;37478;55.682;37.462;2023-02-28T05:02:37;6.87;;;3.37;;
51384;SDS011;37478;55.682;37.462;2023-02-28T05:05:02;5.17;;;2.60;;
51384;SDS011;37478;55.682;37.462;2023-02-28T05:07:27;5.33;;;2.97;;
51384;SDS011;37478;55.682;37.462;2023-02-28T05:09:53;6.83;;;3.83;;
51384;SDS011;37478;55.682;37.462;2023-02-28T05:12:18;4.03;;;3.10;;
51384;SDS011;37478;55.682;37.462;2023-02-28T05:14:43;4.23;;;2.77;;
51384;SDS011;37478;55.682;37.462;2023-02-28T05:17:09;9.90;;;4.75;;
51384;SDS011;37478;55.682;37.462;2023-02-28T05:19:34;14.75;;;4.30;;
51384;SDS011;37478;55.682;37.462;2023-02-28T05:22:00;7.30;;;3.63;;
51384;SDS011;37478;55.682;37.462;2023-02-28T05:24:25;6.17;;;3.03;;
51384;SDS011;37478;55.682;37.462;2023-02-28T05:26:52;3.85;;;2.42;;
51384;SDS011;37478;55.682;37.462;2023-02-28T05:29:17;7.53;;;3.23;;
51384;SDS011;37478;55.682;37.462;2023-02-28T05:31:43;5.17;;;3.27;;
51384;SDS011;37478;55.682;37.462;2023-02-28T05:34:08;4.45;;;2.85;;
51384;SDS011;37478;55.682;37.462;2023-02-28T05:36:36;6.20;;;3.17;;
51384;SDS011;37478;55.682;37.462;2023-02-28T05:39:02;4.90;;;3.03;;
51384;SDS011;37478;55.682;37.462;2023-02-28T05:41:28;6.07;;;3.60;;
51384;SDS011;37478;55.682;37.462;2023-02-28T05:43:53;5.67;;;3.07;;
51384;SDS011;37478;55.682;37.462;2023-02-28T05:46:18;8.27;;;3.87;;
51384;SDS011;37478;55.682;37.462;2023-02-28T05:48:45;7.30;;;3.97;;
51384;SDS011;37478;55.682;37.462;2023-02-28T05:51:11;5.25;;;3.17;;
51384;SDS011;37478;55.682;37.462;2023-02-28T05:53:36;5.13;;;2.83;;
51384;SDS011;37478;55.682;37.462;2023-02-28T05:56:02;8.73;;;3.30;;
51384;SDS011;37478;55.682;37.462;2023-02-28T05:58:27;5.05;;;3.30;;
51384;SDS011;37478;55.682;37.462;2023-02-28T06:00:59;4.70;;;2.92;;
51384;SDS011;37478;55.682;37.462;2023-02-28T06:03:24;7.75;;;3.45;;
51384;SDS011;37478;55.682;37.462;2023-02-28T06:05:50;5.20;;;2.93;;
51384;SDS011;37478;55.682;37.462;2023-02-28T06:08:15;6.18;;;3.88;;
51384;SDS011;37478;55.682;37.462;2023-02-28T06:10:40;4.45;;;2.42;;
51384;SDS011;37478;55.682;37.462;2023-02-28T06:13:06;6.38;;;3.05;;
51384;SDS011;37478;55.682;37.462;2023-02-28T06:15:31;5.60;;;3.28;;
51384;SDS011;37478;55.682;37.462;2023-02-28T06:17:57;5.33;;;2.77;;
51384;SDS011;37478;55.682;37.462;2023-02-28T06:20:23;9.98;;;2.85;;
51384;SDS011;37478;55.682;37.462;2023-02-28T06:22:49;4.03;;;2.55;;
51384;SDS011;37478;55.682;37.462;2023-02-28T06:25:16;7.40;;;4.03;;
51384;SDS011;37478;55.682;37.462;2023-02-28T06:27:41;6.13;;;2.97;;
51384;SDS011;37478;55.682;37.462;2023-02-28T06:30:07;5.97;;;2.97;;
51384;SDS011;37478;55.682;37.462;2023-02-28T06:32:32;4.28;;;2.53;;
51384;SDS011;37478;55.682;37.462;2023-02-28T06:34:57;8.20;;;3.85;;
51384;SDS011;37478;55.682;37.462;2023-02-28T06:37:23;6.40;;;3.17;;
51384;SDS011;37478;55.682;37.462;2023-02-28T06:39:51;5.53;;;3.20;;
51384;SDS011;37478;55.682;37.462;2023-02-28T06:42:16;7.45;;;3.00;;
51384;SDS011;37478;55.682;37.462;2023-02-28T06:44:42;7.10;;;4.00;;
51384;SDS011;37478;55.682;37.462;2023-02-28T06:47:08;6.40;;;3.10;;
51384;SDS011;37478;55.682;37.462;2023-02-28T06:49:34;5.10;;;2.92;;
51384;SDS011;37478;55.682;37.462;2023-02-28T06:52:00;4.15;;;2.55;;
51384;SDS011;37478;55.682;37.462;2023-02-28T06:54:26;6.85;;;3.50;;
51384;SDS011;37478;55.682;37.462;2023-02-28T06:56:52;4.18;;;2.90;;
51384;SDS011;37478;55.682;37.462;2023-02-28T06:59:19;4.05;;;2.63;;
51384;SDS011;37478;55.682;37.462;2023-02-28T07:01:45;5.50;;;3.03;;
51384;SDS011;37478;55.682;37.462;2023-02-28T07:04:10;6.57;;;2.78;;
51384;SDS011;37478;55.682;37.462;2023-02-28T07:06:35;4.60;;;3.08;;
51384;SDS011;37478;55.682;37.462;2023-02-28T07:09:01;4.05;;;2.53;;
51384;SDS011;37478;55.682;37.462;2023-02-28T07:11:26;4.25;;;2.40;;
51384;SDS011;37478;55.682;37.462;2023-02-28T07:13:53;5.63;;;2.85;;
51384;SDS011;37478;55.682;37.462;2023-02-28T07:16:18;6.85;;;3.08;;
51384;SDS011;37478;55.682;37.462;2023-02-28T07:18:43;8.23;;;3.78;;
51384;SDS011;37478;55.682;37.462;2023-02-28T07:21:10;3.53;;;2.35;;
51384;SDS011;37478;55.682;37.462;2023-02-28T07:23:36;8.25;;;3.45;;
51384;SDS011;37478;55.682;37.462;2023-02-28T07:26:03;6.55;;;3.30;;
51384;SDS011;37478;55.682;37.462;2023-02-28T07:28:28;10.20;;;4.68;;
51384;SDS011;37478;55.682;37.462;2023-02-28T07:30:53;7.30;;;2.97;;
51384;SDS011;37478;55.682;37.462;2023-02-28T07:33:19;5.32;;;2.53;;
51384;SDS011;37478;55.682;37.462;2023-02-28T07:35:44;6.45;;;3.70;;
51384;SDS011;37478;55.682;37.462;2023-02-28T07:38:09;5.90;;;3.13;;
51384;SDS011;37478;55.682;37.462;2023-02-28T07:40:35;5.05;;;3.03;;
51384;SDS011;37478;55.682;37.462;2023-02-28T07:43:01;5.32;;;2.40;;
51384;SDS011;37478;55.682;37.462;2023-02-28T07:45:27;6.47;;;3.13;;
51384;SDS011;37478;55.682;37.462;2023-02-28T07:47:53;6.13;;;3.65;;
51384;SDS011;37478;55.682;37.462;2023-02-28T07:50:19;6.90;;;2.83;;
51384;SDS011;37478;55.682;37.462;2023-02-28T07:52:44;6.15;;;3.20;;
51384;SDS011;37478;55.682;37.462;2023-02-28T07:55:10;5.70;;;2.35;;
51384;SDS011;37478;55.682;37.462;2023-02-28T07:57:35;5.78;;;3.03;;
51384;SDS011;37478;55.682;37.462;2023-02-28T08:00:02;5.65;;;3.15;;
51384;SDS011;37478;55.682;37.462;2023-02-28T08:02:28;5.05;;;2.65;;
51384;SDS011;37478;55.682;37.462;2023-02-28T08:04:53;5.82;;;3.33;;
51384;SDS011;37478;55.682;37.462;2023-02-28T08:07:19;5.20;;;3.65;;
51384;SDS011;37478;55.682;37.462;2023-02-28T08:09:44;8.35;;;3.70;;
51384;SDS011;37478;55.682;37.462;2023-02-28T08:12:10;4.63;;;2.55;;
51384;SDS011;37478;55.682;37.462;2023-02-28T08:14:36;5.35;;;3.15;;
51384;SDS011;37478;55.682;37.462;2023-02-28T08:17:01;6.13;;;3.88;;
51384;SDS011;37478;55.682;37.462;2023-02-28T08:19:27;5.85;;;3.28;;
51384;SDS011;37478;55.682;37.462;2023-02-28T08:21:53;7.05;;;3.20;;
51384;SDS011;37478;55.682;37.462;2023-02-28T08:24:19;8.73;;;3.42;;
51384;SDS011;37478;55.682;37.462;2023-02-28T08:26:44;7.60;;;3.58;;
51384;SDS011;37478;55.682;37.462;2023-02-28T08:29:09;7.13;;;3.08;;
51384;SDS011;37478;55.682;37.462;2023-02-28T08:31:35;7.13;;;3.33;;
51384;SDS011;37478;55.682;37.462;2023-02-28T08:34:04;5.47;;;2.90;;
51384;SDS011;37478;55.682;37.462;2023-02-28T08:36:29;12.38;;;3.58;;
51384;SDS011;37478;55.682;37.462;2023-02-28T08:38:55;8.05;;;4.05;;
51384;SDS011;37478;55.682;37.462;2023-02-28T08:41:21;5.07;;;2.90;;
51384;SDS011;37478;55.682;37.462;2023-02-28T08:43:46;4.10;;;2.97;;
51384;SDS011;37478;55.682;37.462;2023-02-28T08:46:12;6.15;;;3.08;;
51384;SDS011;37478;55.682;37.462;2023-02-28T08:48:38;5.60;;;3.65;;
51384;SDS011;37478;55.682;37.462;2023-02-28T08:51:08;6.90;;;3.33;;
51384;SDS011;37478;55.682;37.462;2023-02-28T08:53:37;7.50;;;3.67;;
51384;SDS011;37478;55.682;37.462;2023-02-28T08:56:07;6.05;;;3.50;;
51384;SDS011;37478;55.682;37.462;2023-02-28T08:58:32;4.20;;;2.88;;
51384;SDS011;37478;55.682;37.462;2023-02-28T09:00:59;7.80;;;4.40;;
51384;SDS011;37478;55.682;37.462;2023-02-28T09:03:24;6.70;;;4.00;;
51384;SDS011;37478;55.682;37.462;2023-02-28T09:05:56;8.88;;;3.67;;
51384;SDS011;37478;55.682;37.462;2023-02-28T09:08:23;8.63;;;4.15;;
51384;SDS011;37478;55.682;37.462;2023-02-28T09:10:48;9.48;;;4.82;;
51384;SDS011;37478;55.682;37.462;2023-02-28T09:13:14;9.25;;;4.22;;
51384;SDS011;37478;55.682;37.462;2023-02-28T09:15:39;8.55;;;3.42;;
51384;SDS011;37478;55.682;37.462;2023-02-28T09:18:05;7.63;;;3.22;;
51384;SDS011;37478;55.682;37.462;2023-02-28T09:20:30;7.88;;;3.75;;
51384;SDS011;37478;55.682;37.462;2023-02-28T09:22:55;5.72;;;2.50;;
51384;SDS011;37478;55.682;37.462;2023-02-28T09:25:21;5.47;;;2.88;;
51384;SDS011;37478;55.682;37.462;2023-02-28T09:27:46;11.45;;;3.80;;
51384;SDS011;37478;55.682;37.462;2023-02-28T09:30:11;3.63;;;2.65;;
51384;SDS011;37478;55.682;37.462;2023-02-28T09:32:37;6.07;;;2.50;;
51384;SDS011;37478;55.682;37.462;2023-02-28T09:35:02;5.35;;;3.35;;
51384;SDS011;37478;55.682;37.462;2023-02-28T09:37:27;3.70;;;2.40;;
51384;SDS011;37478;55.682;37.462;2023-02-28T09:39:54;5.85;;;2.65;;
51384;SDS011;37478;55.682;37.462;2023-02-28T09:42:29;6.03;;;3.20;;
51384;SDS011;37478;55.682;37.462;2023-02-28T09:44:55;6.13;;;3.00;;
51384;SDS011;37478;55.682;37.462;2023-02-28T09:47:43;5.22;;;2.75;;
51384;SDS011;37478;55.682;37.462;2023-02-28T09:52:50;4.72;;;2.80;;
51384;SDS011;37478;55.682;37.462;2023-02-28T09:55:29;8.15;;;2.90;;
51384;SDS011;37478;55.682;37.462;2023-02-28T09:57:55;5.03;;;2.90;;
51384;SDS011;37478;55.682;37.462;2023-02-28T10:00:26;6.68;;;3.05;;
51384;SDS011;37478;55.682;37.462;2023-02-28T10:05:43;5.20;;;2.80;;
51384;SDS011;37478;55.682;37.462;2023-02-28T10:10:42;5.95;;;3.10;;
51384;SDS011;37478;55.682;37.462;2023-02-28T10:15:42;8.18;;;3.20;;
51384;SDS011;37478;55.682;37.462;2023-02-28T10:18:11;6.90;;;3.13;;
51384;SDS011;37478;55.682;37.462;2023-02-28T10:20:38;3.92;;;2.65;;
51384;SDS011;37478;55.682;37.462;2023-02-28T10:23:13;2.67;;;1.90;;
51384;SDS011;37478;55.682;37.462;2023-02-28T10:25:39;5.68;;;2.95;;
51384;SDS011;37478;55.682;37.462;2023-02-28T10:28:13;4.88;;;3.00;;
51384;SDS011;37478;55.682;37.462;2023-02-28T10:30:41;9.27;;;3.25;;
51384;SDS011;37478;55.682;37.462;2023-02-28T10:33:08;6.25;;;3.58;;
51384;SDS011;37478;55.682;37.462;2023-02-28T10:35:40;4.65;;;2.75;;
51384;SDS011;37478;55.682;37.462;2023-02-28T10:38:10;6.97;;;2.88;;
51384;SDS011;37478;55.682;37.462;2023-02-28T10:40:39;5.70;;;2.60;;
51384;SDS011;37478;55.682;37.462;2023-02-28T10:43:26;5.47;;;2.65;;
51384;SDS011;37478;55.682;37.462;2023-02-28T10:45:58;5.57;;;2.78;;
51384;SDS011;37478;55.682;37.462;2023-02-28T10:48:26;4.63;;;2.70;;
51384;SDS011;37478;55.682;37.462;2023-02-28T10:50:54;5.50;;;2.92;;
51384;SDS011;37478;55.682;37.462;2023-02-28T10:58:44;5.15;;;3.10;;
51384;SDS011;37478;55.682;37.462;2023-02-28T11:01:15;6.97;;;4.20;;
51384;SDS011;37478;55.682;37.462;2023-02-28T11:03:41;21.42;;;4.65;;
51384;SDS011;37478;55.682;37.462;2023-02-28T11:06:08;6.13;;;3.58;;
51384;SDS011;37478;55.682;37.462;2023-02-28T11:08:43;5.13;;;3.10;;
51384;SDS011;37478;55.682;37.462;2023-02-28T11:11:09;5.93;;;2.90;;
51384;SDS011;37478;55.682;37.462;2023-02-28T11:13:35;6.32;;;3.60;;
51384;SDS011;37478;55.682;37.462;2023-02-28T11:16:03;8.68;;;4.15;;
51384;SDS011;37478;55.682;37.462;2023-02-28T11:20:55;6.45;;;3.42;;
51384;SDS011;37478;55.682;37.462;2023-02-28T11:23:21;6.53;;;3.47;;
51384;SDS011;37478;55.682;37.462;2023-02-28T11:25:52;6.10;;;4.10;;
51384;SDS011;37478;55.682;37.462;2023-02-28T11:28:35;4.50;;;3.03;;
51384;SDS011;37478;55.682;37.462;2023-02-28T11:31:03;6.68;;;3.63;;
51384;SDS011;37478;55.682;37.462;2023-02-28T11:33:29;6.15;;;3.17;;
51384;SDS011;37478;55.682;37.462;2023-02-28T11:35:57;6.10;;;3.97;;
51384;SDS011;37478;55.682;37.462;2023-02-28T11:38:24;6.88;;;4.00;;
51384;SDS011;37478;55.682;37.462;2023-02-28T11:45:54;9.57;;;4.22;;
51384;SDS011;37478;55.682;37.462;2023-02-28T11:48:27;4.88;;;2.92;;
51384;SDS011;37478;55.682;37.462;2023-02-28T11:51:16;13.85;;;3.50;;
51384;SDS011;37478;55.682;37.462;2023-02-28T12:01:37;6.30;;;4.15;;
51384;SDS011;37478;55.682;37.462;2023-02-28T12:06:42;7.07;;;4.05;;
51384;SDS011;37478;55.682;37.462;2023-02-28T12:11:56;7.23;;;4.60;;
51384;SDS011;37478;55.682;37.462;2023-02-28T12:22:35;7.38;;;3.63;;
51384;SDS011;37478;55.682;37.462;2023-02-28T12:27:38;9.05;;;4.53;;
51384;SDS011;37478;55.682;37.462;2023-02-28T12:30:13;9.45;;;4.70;;
51384;SDS011;37478;55.682;37.462;2023-02-28T12:32:41;10.15;;;4.88;;
51384;SDS011;37478;55.682;37.462;2023-02-28T12:40:03;7.68;;;4.10;;
51384;SDS011;37478;55.682;37.462;2023-02-28T12:42:39;7.97;;;4.63;;
51384;SDS011;37478;55.682;37.462;2023-02-28T12:45:23;8.63;;;3.65;;
51384;SDS011;37478;55.682;37.462;2023-02-28T12:47:56;9.38;;;5.32;;
51384;SDS011;37478;55.682;37.462;2023-02-28T12:50:23;9.40;;;5.13;;
51384;SDS011;37478;55.682;37.462;2023-02-28T12:55:38;6.00;;;4.22;;
51384;SDS011;37478;55.682;37.462;2023-02-28T13:01:03;12.13;;;5.00;;
51384;SDS011;37478;55.682;37.462;2023-02-28T13:06:38;7.60;;;4.38;;
51384;SDS011;37478;55.682;37.462;2023-02-28T13:09:15;6.13;;;3.53;;
51384;SDS011;37478;55.682;37.462;2023-02-28T13:14:18;8.88;;;3.97;;
51384;SDS011;37478;55.682;37.462;2023-02-28T13:16:48;5.95;;;3.78;;
51384;SDS011;37478;55.682;37.462;2023-02-28T13:19:16;6.38;;;3.30;;
51384;SDS011;37478;55.682;37.462;2023-02-28T13:21:43;5.82;;;3.38;;
51384;SDS011;37478;55.682;37.462;2023-02-28T13:24:09;4.97;;;3.40;;
51384;SDS011;37478;55.682;37.462;2023-02-28T13:34:27;8.80;;;4.20;;
51384;SDS011;37478;55.682;37.462;2023-02-28T13:37:03;6.07;;;4.53;;
51384;SDS011;37478;55.682;37.462;2023-02-28T13:42:22;7.80;;;4.47;;
51384;SDS011;37478;55.682;37.462;2023-02-28T13:47:23;6.43;;;3.80;;
51384;SDS011;37478;55.682;37.462;2023-02-28T13:49:50;8.48;;;4.32;;
51384;SDS011;37478;55.682;37.462;2023-02-28T13:52:17;6.30;;;3.65;;
51384;SDS011;37478;55.682;37.462;2023-02-28T14:02:19;5.80;;;3.47;;
51384;SDS011;37478;55.682;37.462;2023-02-28T14:07:28;6.25;;;3.38;;
51384;SDS011;37478;55.682;37.462;2023-02-28T14:09:59;7.45;;;4.18;;
51384;SDS011;37478;55.682;37.462;2023-02-28T14:17:58;6.78;;;3.92;;
51384;SDS011;37478;55.682;37.462;2023-02-28T14:20:26;6.32;;;3.83;;
51384;SDS011;37478;55.682;37.462;2023-02-28T14:38:27;6.93;;;4.07;;
51384;SDS011;37478;55.682;37.462;2023-02-28T14:40:54;5.35;;;3.85;;
51384;SDS011;37478;55.682;37.462;2023-02-28T14:43:21;7.00;;;4.53;;
51384;SDS011;37478;55.682;37.462;2023-02-28T14:45:49;8.05;;;4.25;;
51384;SDS011;37478;55.682;37.462;2023-02-28T14:48:15;8.80;;;4.78;;
51384;SDS011;37478;55.682;37.462;2023-02-28T14:50:41;6.05;;;4.38;;
51384;SDS011;37478;55.682;37.462;2023-02-28T14:53:15;8.80;;;4.93;;
51384;SDS011;37478;55.682;37.462;2023-02-28T14:55:43;7.68;;;3.58;;
51384;SDS011;37478;55.682;37.462;2023-02-28T14:58:31;10.82;;;4.90;;
51384;SDS011;37478;55.682;37.462;2023-02-28T15:00:57;8.95;;;4.35;;
51384;SDS011;37478;55.682;37.462;2023-02-28T15:03:23;9.18;;;5.22;;
51384;SDS011;37478;55.682;37.462;2023-02-28T15:05:57;7.55;;;4.32;;
51384;SDS011;37478;55.682;37.462;2023-02-28T15:08:22;7.30;;;4.25;;
51384;SDS011;37478;55.682;37.462;2023-02-28T15:10:58;8.25;;;4.20;;
51384;SDS011;37478;55.682;37.462;2023-02-28T15:13:34;6.78;;;3.83;;
51384;SDS011;37478;55.682;37.462;2023-02-28T15:21:15;7.43;;;4.55;;
51384;SDS011;37478;55.682;37.462;2023-02-28T15:23:41;6.25;;;3.33;;
51384;SDS011;37478;55.682;37.462;2023-02-28T15:26:10;7.38;;;4.35;;
51384;SDS011;37478;55.682;37.462;2023-02-28T15:28:37;7.50;;;4.32;;
51384;SDS011;37478;55.682;37.462;2023-02-28T15:31:03;8.77;;;4.45;;
51384;SDS011;37478;55.682;37.462;2023-02-28T15:33:51;9.95;;;4.88;;
51384;SDS011;37478;55.682;37.462;2023-02-28T15:36:17;9.10;;;5.15;;
51384;SDS011;37478;55.682;37.462;2023-02-28T15:38:50;6.22;;;3.55;;
51384;SDS011;37478;55.682;37.462;2023-02-28T15:41:24;7.85;;;3.83;;
51384;SDS011;37478;55.682;37.462;2023-02-28T15:43:49;7.43;;;4.57;;
51384;SDS011;37478;55.682;37.462;2023-02-28T15:46:34;8.20;;;4.50;;
51384;SDS011;37478;55.682;37.462;2023-02-28T15:49:00;7.05;;;3.75;;
51384;SDS011;37478;55.682;37.462;2023-02-28T15:51:36;5.60;;;3.58;;
51384;SDS011;37478;55.682;37.462;2023-02-28T15:54:04;8.18;;;4.18;;
51384;SDS011;37478;55.682;37.462;2023-02-28T15:56:31;9.80;;;4.45;;
51384;SDS011;37478;55.682;37.462;2023-02-28T15:58:59;5.70;;;3.85;;
51384;SDS011;37478;55.682;37.462;2023-02-28T16:01:25;6.63;;;3.85;;
51384;SDS011;37478;55.682;37.462;2023-02-28T16:03:51;7.68;;;4.20;;
51384;SDS011;37478;55.682;37.462;2023-02-28T16:08:47;8.20;;;3.67;;
51384;SDS011;37478;55.682;37.462;2023-02-28T16:11:13;6.30;;;3.13;;
51384;SDS011;37478;55.682;37.462;2023-02-28T16:13:39;5.43;;;3.70;;
51384;SDS011;37478;55.682;37.462;2023-02-28T16:16:04;7.60;;;4.03;;
51384;SDS011;37478;55.682;37.462;2023-02-28T16:18:30;5.30;;;3.30;;
51384;SDS011;37478;55.682;37.462;2023-02-28T16:20:55;8.02;;;4.07;;
51384;SDS011;37478;55.682;37.462;2023-02-28T16:23:21;5.75;;;3.17;;
51384;SDS011;37478;55.682;37.462;2023-02-28T16:25:46;5.80;;;4.22;;
51384;SDS011;37478;55.682;37.462;2023-02-28T16:28:23;5.45;;;2.90;;
51384;SDS011;37478;55.682;37.462;2023-02-28T16:30:51;6.25;;;2.33;;
51384;SDS011;37478;55.682;37.462;2023-02-28T16:33:16;5.85;;;3.35;;
51384;SDS011;37478;55.682;37.462;2023-02-28T16:35:42;4.78;;;3.17;;
51384;SDS011;37478;55.682;37.462;2023-02-28T16:38:07;3.55;;;2.58;;
51384;SDS011;37478;55.682;37.462;2023-02-28T16:40:33;4.22;;;2.55;;
51384;SDS011;37478;55.682;37.462;2023-02-28T16:42:58;6.43;;;3.70;;
51384;SDS011;37478;55.682;37.462;2023-02-28T16:45:25;6.75;;;3.55;;
51384;SDS011;37478;55.682;37.462;2023-02-28T16:47:51;3.97;;;2.70;;
51384;SDS011;37478;55.682;37.462;2023-02-28T16:50:18;4.15;;;2.90;;
51384;SDS011;37478;55.682;37.462;2023-02-28T16:52:44;4.28;;;2.50;;
51384;SDS011;37478;55.682;37.462;2023-02-28T16:55:09;4.53;;;3.05;;
51384;SDS011;37478;55.682;37.462;2023-02-28T16:57:35;3.63;;;2.85;;
51384;SDS011;37478;55.682;37.462;2023-02-28T17:00:00;8.77;;;4.13;;